Time;durP1;ratioP1;P1;durP2;ratioP2;P2;SDS_P1;SDS_P2;PMS_P1;PMS_P2;Temp;Humidity;BMP_temperature;BMP_pressure;BME280_temperature;BME280_humidity;BME280_pressure;Samples;Min_cycle;Max_cycle;Signal;HPM_P1;HPM_P2
2024/03/31 00:00:01;;;;;;;0.30;0.10;;;;;;;;;;2087557;28;20051;-47
2024/03/31 00:01:08;;;;;;;0.65;0.20;;;;;;;;;;2082772;28;20017;-48
2024/03/31 00:02:09;;;;;;;0.60;0.28;;;;;;;;;;2086516;28;20100;-48
2024/03/31 00:03:12;;;;;;;0.40;0.20;;;;;;;;;;2088419;28;20025;-48
2024/03/31 00:04:13;;;;;;;0.30;0.20;;;;;;;;;;2088499;28;20032;-48
2024/03/31 00:05:14;;;;;;;0.40;0.13;;;;;;;;;;2081092;28;20021;-48
2024/03/31 00:06:16;;;;;;;2.05;0.25;;;;;;;;;;2084958;28;20479;-47
2024/03/31 00:07:17;;;;;;;2.50;0.20;;;;;;;;;;2089251;28;20029;-48
2024/03/31 00:08:18;;;;;;;1.10;0.30;;;;;;;;;;2088850;28;20024;-47
2024/03/31 00:09:20;;;;;;;0.30;0.10;;;;;;;;;;2088816;28;20104;-47
2024/03/31 00:10:21;;;;;;;0.57;0.25;;;;;;;;;;2089377;28;20099;-47
2024/03/31 00:11:22;;;;;;;0.73;0.30;;;;;;;;;;2089048;28;20364;-48
2024/03/31 00:12:24;;;;;;;0.80;0.30;;;;;;;;;;2089139;28;20027;-47
2024/03/31 00:13:25;;;;;;;0.30;0.20;;;;;;;;;;2089309;28;20032;-49
2024/03/31 00:14:26;;;;;;;0.30;0.10;;;;;;;;;;2087679;28;20492;-49
2024/03/31 00:15:28;;;;;;;0.35;0.30;;;;;;;;;;2087855;28;20476;-50
2024/03/31 00:16:29;;;;;;;0.60;0.38;;;;;;;;;;2086423;28;20372;-50
2024/03/31 00:17:30;;;;;;;0.35;0.10;;;;;;;;;;2096552;28;20012;-51
2024/03/31 00:18:33;;;;;;;0.60;0.25;;;;;;;;;;2095685;28;20005;-50
2024/03/31 00:19:34;;;;;;;1.02;0.30;;;;;;;;;;2080980;28;20337;-50
2024/03/31 00:20:35;;;;;;;0.40;0.20;;;;;;;;;;2082515;28;20555;-49
2024/03/31 00:21:37;;;;;;;0.47;0.20;;;;;;;;;;2088933;28;20021;-50
2024/03/31 00:22:38;;;;;;;0.77;0.20;;;;;;;;;;2090407;28;20023;-51
2024/03/31 00:23:40;;;;;;;0.82;0.10;;;;;;;;;;2092471;28;20028;-49
2024/03/31 00:24:44;;;;;;;0.22;0.10;;;;;;;;;;2089124;28;20377;-51
2024/03/31 00:25:45;;;;;;;0.60;0.20;;;;;;;;;;2086876;28;20024;-51
2024/03/31 00:26:47;;;;;;;1.00;0.13;;;;;;;;;;2088985;28;20020;-52
2024/03/31 00:27:48;;;;;;;0.68;0.20;;;;;;;;;;2089083;28;20021;-51
2024/03/31 00:28:49;;;;;;;0.40;0.25;;;;;;;;;;2089106;28;20024;-53
2024/03/31 00:29:51;;;;;;;0.40;0.28;;;;;;;;;;2089358;28;20045;-54
2024/03/31 00:30:55;;;;;;;0.30;0.10;;;;;;;;;;2089303;28;20024;-53
2024/03/31 00:31:57;;;;;;;0.45;0.20;;;;;;;;;;2089030;28;20059;-51
2024/03/31 00:32:58;;;;;;;0.03;0.00;;;;;;;;;;2088908;28;20107;-52
2024/03/31 00:34:00;;;;;;;1.08;0.10;;;;;;;;;;2086110;28;21404;-49
2024/03/31 00:35:03;;;;;;;0.20;0.10;;;;;;;;;;2093529;28;20399;-46
2024/03/31 00:36:05;;;;;;;0.43;0.13;;;;;;;;;;2092967;28;20585;-48
2024/03/31 00:37:08;;;;;;;0.95;0.20;;;;;;;;;;2080897;28;20584;-47
2024/03/31 00:38:09;;;;;;;0.43;0.20;;;;;;;;;;2083496;28;20010;-48
2024/03/31 00:39:10;;;;;;;0.20;0.10;;;;;;;;;;2089176;28;20487;-47
2024/03/31 00:40:12;;;;;;;0.32;0.10;;;;;;;;;;2083164;28;20049;-46
2024/03/31 00:41:13;;;;;;;0.47;0.20;;;;;;;;;;2084975;28;20364;-48
2024/03/31 00:42:14;;;;;;;0.22;0.10;;;;;;;;;;2093900;28;20486;-47
2024/03/31 00:43:17;;;;;;;0.20;0.10;;;;;;;;;;2088604;28;20104;-45
2024/03/31 00:44:18;;;;;;;0.38;0.10;;;;;;;;;;2088843;28;20431;-46
2024/03/31 00:45:19;;;;;;;0.65;0.10;;;;;;;;;;2088922;28;20067;-45
2024/03/31 00:46:21;;;;;;;0.10;0.10;;;;;;;;;;2096494;28;20476;-45
2024/03/31 00:47:22;;;;;;;0.43;0.22;;;;;;;;;;2096520;28;20017;-47
2024/03/31 00:48:23;;;;;;;0.55;0.03;;;;;;;;;;2088059;28;20029;-45
2024/03/31 00:49:25;;;;;;;0.32;0.10;;;;;;;;;;2088766;28;20032;-44
2024/03/31 00:50:26;;;;;;;0.52;0.20;;;;;;;;;;2084471;28;20053;-47
2024/03/31 00:51:27;;;;;;;0.13;0.05;;;;;;;;;;2087024;28;20049;-44
2024/03/31 00:52:29;;;;;;;0.82;0.35;;;;;;;;;;2088828;28;20500;-46
2024/03/31 00:53:30;;;;;;;1.42;0.60;;;;;;;;;;2088223;28;20021;-44
2024/03/31 00:54:31;;;;;;;1.67;0.55;;;;;;;;;;2090505;28;20033;-51
2024/03/31 00:55:33;;;;;;;1.05;0.60;;;;;;;;;;2088962;28;20028;-50
2024/03/31 00:56:34;;;;;;;0.90;0.40;;;;;;;;;;2088112;28;20021;-51
2024/03/31 00:57:35;;;;;;;0.80;0.17;;;;;;;;;;2088267;28;20051;-51
2024/03/31 00:58:38;;;;;;;1.95;0.60;;;;;;;;;;2085313;28;20021;-51
2024/03/31 00:59:39;;;;;;;0.93;0.50;;;;;;;;;;2088549;28;20055;-52
2024/03/31 01:00:40;;;;;;;0.22;0.10;;;;;;;;;;2080675;28;20017;-51
2024/03/31 01:01:42;;;;;;;0.75;0.30;;;;;;;;;;2087913;28;20166;-51
2024/03/31 01:02:43;;;;;;;1.20;0.10;;;;;;;;;;2089058;28;20021;-51
2024/03/31 01:03:45;;;;;;;1.15;0.20;;;;;;;;;;2088702;28;20044;-52
2024/03/31 01:04:46;;;;;;;0.43;0.10;;;;;;;;;;2088420;28;20025;-50
2024/03/31 01:05:48;;;;;;;0.43;0.10;;;;;;;;;;2088782;28;20146;-50
2024/03/31 01:06:49;;;;;;;0.60;0.17;;;;;;;;;;2088585;28;20025;-52
2024/03/31 01:07:50;;;;;;;0.30;0.10;;;;;;;;;;2088677;28;20041;-51
2024/03/31 01:08:52;;;;;;;0.30;0.10;;;;;;;;;;2088684;28;20009;-52
2024/03/31 01:09:53;;;;;;;0.20;0.10;;;;;;;;;;2085321;28;20452;-50
2024/03/31 01:10:55;;;;;;;0.25;0.20;;;;;;;;;;2089686;28;20017;-51
2024/03/31 01:11:56;;;;;;;0.40;0.10;;;;;;;;;;2089937;28;20408;-49
2024/03/31 01:12:57;;;;;;;0.00;0.00;;;;;;;;;;2090260;28;20035;-51
2024/03/31 01:14:00;;;;;;;0.32;0.00;;;;;;;;;;2082041;28;20029;-49
2024/03/31 01:15:01;;;;;;;0.30;0.10;;;;;;;;;;2082202;28;20013;-50
2024/03/31 01:16:03;;;;;;;0.30;0.10;;;;;;;;;;2096666;28;20036;-50
2024/03/31 01:17:05;;;;;;;0.20;0.05;;;;;;;;;;2097383;28;20391;-49
2024/03/31 01:18:06;;;;;;;0.75;0.10;;;;;;;;;;2088279;28;20434;-51
2024/03/31 01:19:07;;;;;;;1.20;0.10;;;;;;;;;;2089598;28;20017;-52
2024/03/31 01:20:09;;;;;;;1.08;0.10;;;;;;;;;;2089428;28;20095;-49
2024/03/31 01:21:10;;;;;;;0.40;0.10;;;;;;;;;;2090369;28;20029;-49
2024/03/31 01:22:12;;;;;;;0.38;0.10;;;;;;;;;;2090201;28;20082;-50
2024/03/31 01:23:14;;;;;;;2.03;0.10;;;;;;;;;;2090247;28;20044;-48
2024/03/31 01:24:15;;;;;;;0.40;0.10;;;;;;;;;;2090389;28;20492;-50
2024/03/31 01:25:16;;;;;;;0.22;0.10;;;;;;;;;;2090283;28;20072;-50
2024/03/31 01:26:19;;;;;;;0.43;0.00;;;;;;;;;;2090086;28;20037;-50
2024/03/31 01:27:20;;;;;;;0.43;0.10;;;;;;;;;;2090014;28;20023;-49
2024/03/31 01:28:22;;;;;;;0.40;0.10;;;;;;;;;;2090094;28;20128;-49
2024/03/31 01:29:23;;;;;;;0.57;0.20;;;;;;;;;;2089511;28;20025;-50
2024/03/31 01:30:24;;;;;;;0.20;0.10;;;;;;;;;;2089716;28;20029;-48
2024/03/31 01:31:25;;;;;;;0.85;0.13;;;;;;;;;;2090098;28;20025;-51
2024/03/31 01:32:27;;;;;;;0.20;0.00;;;;;;;;;;2089377;28;20456;-49
2024/03/31 01:33:29;;;;;;;1.08;0.10;;;;;;;;;;2089453;28;20056;-50
2024/03/31 01:34:30;;;;;;;0.50;0.10;;;;;;;;;;2086474;28;20025;-49
2024/03/31 01:35:32;;;;;;;0.22;0.10;;;;;;;;;;2087980;28;20017;-51
2024/03/31 01:36:33;;;;;;;0.22;0.00;;;;;;;;;;2087192;28;20048;-50
2024/03/31 01:37:34;;;;;;;0.30;0.10;;;;;;;;;;2089375;28;20021;-49
2024/03/31 01:38:36;;;;;;;0.10;0.00;;;;;;;;;;2090254;28;20405;-48
2024/03/31 01:39:37;;;;;;;0.20;0.08;;;;;;;;;;2090153;28;20078;-50
2024/03/31 01:40:38;;;;;;;1.40;0.20;;;;;;;;;;2082849;28;20013;-50
2024/03/31 01:41:40;;;;;;;0.90;0.10;;;;;;;;;;2087512;28;20119;-48
2024/03/31 01:42:44;;;;;;;0.22;0.10;;;;;;;;;;2083711;28;20010;-50
2024/03/31 01:43:47;;;;;;;0.63;0.20;;;;;;;;;;2089345;28;20019;-46
2024/03/31 01:44:49;;;;;;;0.35;0.20;;;;;;;;;;2087653;28;20120;-50
2024/03/31 01:45:51;;;;;;;0.50;0.10;;;;;;;;;;2089739;28;20123;-50
2024/03/31 01:46:53;;;;;;;0.43;0.10;;;;;;;;;;2089278;28;20032;-49
2024/03/31 01:47:54;;;;;;;0.40;0.20;;;;;;;;;;2084782;28;20067;-49
2024/03/31 01:48:55;;;;;;;0.45;0.13;;;;;;;;;;2089887;28;20025;-49
2024/03/31 01:49:56;;;;;;;0.40;0.20;;;;;;;;;;2096885;28;20029;-51
2024/03/31 01:50:59;;;;;;;0.98;0.15;;;;;;;;;;2085425;28;20437;-50
2024/03/31 01:52:00;;;;;;;0.88;0.17;;;;;;;;;;2089800;28;20061;-50
2024/03/31 01:53:01;;;;;;;0.40;0.20;;;;;;;;;;2089682;28;20016;-49
2024/03/31 01:54:03;;;;;;;0.17;0.10;;;;;;;;;;2095124;28;20187;-51
2024/03/31 01:55:04;;;;;;;0.10;0.00;;;;;;;;;;2095334;28;20060;-50
2024/03/31 01:56:06;;;;;;;0.57;0.20;;;;;;;;;;2090285;28;20043;-50
2024/03/31 01:57:07;;;;;;;0.47;0.20;;;;;;;;;;2089733;28;20480;-50
2024/03/31 01:58:08;;;;;;;0.80;0.20;;;;;;;;;;2090141;28;20024;-49
2024/03/31 01:59:10;;;;;;;0.45;0.20;;;;;;;;;;2090512;28;20025;-50
2024/03/31 02:00:11;;;;;;;0.30;0.10;;;;;;;;;;2090225;28;20100;-48
2024/03/31 02:01:13;;;;;;;1.05;0.25;;;;;;;;;;2090280;28;20025;-51
2024/03/31 02:02:14;;;;;;;1.38;0.20;;;;;;;;;;2090604;28;20017;-50
2024/03/31 02:03:16;;;;;;;0.45;0.17;;;;;;;;;;2090346;28;20100;-51
2024/03/31 02:04:18;;;;;;;0.10;0.10;;;;;;;;;;2090319;28;20025;-49
2024/03/31 02:05:19;;;;;;;0.15;0.10;;;;;;;;;;2090019;28;20028;-50
2024/03/31 02:06:21;;;;;;;0.30;0.10;;;;;;;;;;2089830;28;20488;-51
2024/03/31 02:07:22;;;;;;;0.30;0.10;;;;;;;;;;2088984;28;20048;-49
2024/03/31 02:08:23;;;;;;;0.52;0.20;;;;;;;;;;2088488;28;20546;-49
2024/03/31 02:09:25;;;;;;;1.15;0.20;;;;;;;;;;2089883;28;20456;-51
2024/03/31 02:10:26;;;;;;;0.40;0.20;;;;;;;;;;2090029;28;20017;-53
2024/03/31 02:11:27;;;;;;;0.30;0.20;;;;;;;;;;2089889;28;20028;-50
2024/03/31 02:12:28;;;;;;;0.10;0.10;;;;;;;;;;2090119;28;20430;-50
2024/03/31 02:13:30;;;;;;;0.28;0.10;;;;;;;;;;2089856;28;20021;-50
2024/03/31 02:14:35;;;;;;;0.75;0.30;;;;;;;;;;2089655;28;20115;-50
2024/03/31 02:15:36;;;;;;;1.02;0.30;;;;;;;;;;2090103;28;20013;-49
2024/03/31 02:16:38;;;;;;;1.05;0.50;;;;;;;;;;2089649;28;20028;-50
2024/03/31 02:17:39;;;;;;;0.50;0.10;;;;;;;;;;2089531;28;20029;-48
2024/03/31 02:18:41;;;;;;;0.28;0.10;;;;;;;;;;2090080;28;20017;-49
2024/03/31 02:19:44;;;;;;;1.25;0.30;;;;;;;;;;2089755;28;20005;-49
2024/03/31 02:20:45;;;;;;;0.30;0.10;;;;;;;;;;2087226;28;20391;-48
2024/03/31 02:21:46;;;;;;;0.15;0.10;;;;;;;;;;2087166;28;20506;-51
2024/03/31 02:22:48;;;;;;;0.90;0.10;;;;;;;;;;2089099;28;20032;-50
2024/03/31 02:23:49;;;;;;;1.00;0.28;;;;;;;;;;2090013;28;20036;-46
2024/03/31 02:24:50;;;;;;;0.68;0.10;;;;;;;;;;2089979;28;20028;-49
2024/03/31 02:25:52;;;;;;;0.20;0.10;;;;;;;;;;2091381;28;20095;-49
2024/03/31 02:26:53;;;;;;;0.30;0.10;;;;;;;;;;2081965;28;20056;-51
2024/03/31 02:27:54;;;;;;;0.10;0.00;;;;;;;;;;2086140;28;20027;-52
2024/03/31 02:28:56;;;;;;;0.13;0.10;;;;;;;;;;2085412;28;20024;-49
2024/03/31 02:29:57;;;;;;;0.10;0.08;;;;;;;;;;2088947;28;20112;-51
2024/03/31 02:30:59;;;;;;;0.57;0.20;;;;;;;;;;2088798;28;20029;-50
2024/03/31 02:32:01;;;;;;;0.20;0.10;;;;;;;;;;2089852;28;20055;-49
2024/03/31 02:33:03;;;;;;;0.40;0.10;;;;;;;;;;2086166;28;20021;-51
2024/03/31 02:34:04;;;;;;;0.68;0.10;;;;;;;;;;2084724;28;20041;-49
2024/03/31 02:35:06;;;;;;;0.10;0.08;;;;;;;;;;2089127;28;20391;-51
2024/03/31 02:36:09;;;;;;;0.20;0.10;;;;;;;;;;2089029;28;20110;-52
2024/03/31 02:37:11;;;;;;;0.10;0.10;;;;;;;;;;2089238;28;20021;-52
2024/03/31 02:38:12;;;;;;;0.20;0.10;;;;;;;;;;2087244;28;20554;-52
2024/03/31 02:39:13;;;;;;;0.52;0.20;;;;;;;;;;2087155;28;20395;-52
2024/03/31 02:40:15;;;;;;;0.30;0.20;;;;;;;;;;2083657;28;20416;-52
2024/03/31 02:41:17;;;;;;;0.05;0.03;;;;;;;;;;2087135;28;20481;-51
2024/03/31 02:42:18;;;;;;;0.05;0.00;;;;;;;;;;2093398;28;20385;-52
2024/03/31 02:43:20;;;;;;;1.15;0.10;;;;;;;;;;2096685;28;20023;-50
2024/03/31 02:44:21;;;;;;;0.57;0.20;;;;;;;;;;2096670;28;20386;-51
2024/03/31 02:45:22;;;;;;;0.20;0.10;;;;;;;;;;2093978;28;20028;-50
2024/03/31 02:46:24;;;;;;;0.22;0.10;;;;;;;;;;2089626;28;20040;-48
2024/03/31 02:47:25;;;;;;;0.30;0.22;;;;;;;;;;2088355;28;20017;-51
2024/03/31 02:48:26;;;;;;;0.30;0.10;;;;;;;;;;2089533;28;20032;-49
2024/03/31 02:49:27;;;;;;;0.20;0.20;;;;;;;;;;2088877;28;20107;-51
2024/03/31 02:50:30;;;;;;;0.10;0.00;;;;;;;;;;2089666;28;20109;-54
2024/03/31 02:51:32;;;;;;;0.65;0.30;;;;;;;;;;2089738;28;20016;-51
2024/03/31 02:52:33;;;;;;;0.22;0.08;;;;;;;;;;2089608;28;20402;-51
2024/03/31 02:53:36;;;;;;;0.30;0.10;;;;;;;;;;2089142;28;20017;-53
2024/03/31 02:54:37;;;;;;;0.40;0.20;;;;;;;;;;2088831;28;20024;-51
2024/03/31 02:55:38;;;;;;;0.28;0.10;;;;;;;;;;2089582;28;20028;-53
2024/03/31 02:56:39;;;;;;;0.30;0.13;;;;;;;;;;2089950;28;20037;-53
2024/03/31 02:57:41;;;;;;;0.30;0.20;;;;;;;;;;2089721;28;20492;-53
2024/03/31 02:58:42;;;;;;;0.57;0.20;;;;;;;;;;2090027;28;20033;-51
2024/03/31 02:59:45;;;;;;;0.20;0.10;;;;;;;;;;2090056;28;20063;-52
2024/03/31 03:00:46;;;;;;;0.13;0.10;;;;;;;;;;2090028;28;20422;-52
2024/03/31 03:01:48;;;;;;;0.77;0.10;;;;;;;;;;2087072;28;20024;-51
2024/03/31 03:02:50;;;;;;;1.27;0.20;;;;;;;;;;2088556;28;20060;-53
2024/03/31 03:03:51;;;;;;;0.70;0.20;;;;;;;;;;2090008;28;20025;-54
2024/03/31 03:04:52;;;;;;;0.40;0.10;;;;;;;;;;2089555;28;20067;-50
2024/03/31 03:05:54;;;;;;;1.05;0.10;;;;;;;;;;2089957;28;20475;-52
2024/03/31 03:06:56;;;;;;;0.28;0.10;;;;;;;;;;2088689;28;20058;-53
2024/03/31 03:07:57;;;;;;;0.38;0.13;;;;;;;;;;2089610;28;20020;-53
2024/03/31 03:08:58;;;;;;;0.30;0.20;;;;;;;;;;2089860;28;20046;-52
2024/03/31 03:10:00;;;;;;;1.00;0.20;;;;;;;;;;2088971;28;20021;-53
2024/03/31 03:11:03;;;;;;;0.17;0.10;;;;;;;;;;2088963;28;20067;-51
2024/03/31 03:12:04;;;;;;;0.10;0.10;;;;;;;;;;2089280;28;20028;-53
2024/03/31 03:13:06;;;;;;;1.02;0.22;;;;;;;;;;2088718;28;20094;-52
2024/03/31 03:14:07;;;;;;;0.63;0.10;;;;;;;;;;2089440;28;20029;-50
2024/03/31 03:15:08;;;;;;;0.77;0.10;;;;;;;;;;2089336;28;20108;-51
2024/03/31 03:16:10;;;;;;;0.98;0.20;;;;;;;;;;2088850;28;20058;-54
2024/03/31 03:17:11;;;;;;;0.80;0.10;;;;;;;;;;2089045;28;20025;-52
2024/03/31 03:18:14;;;;;;;0.10;0.10;;;;;;;;;;2089587;28;20044;-53
2024/03/31 03:19:15;;;;;;;0.60;0.13;;;;;;;;;;2089483;28;20029;-54
2024/03/31 03:20:18;;;;;;;0.82;0.20;;;;;;;;;;2089915;28;20029;-53
2024/03/31 03:21:19;;;;;;;1.05;0.30;;;;;;;;;;2088930;28;20025;-53
2024/03/31 03:22:21;;;;;;;1.42;0.60;;;;;;;;;;2088988;28;20403;-52
2024/03/31 03:23:22;;;;;;;3.58;0.40;;;;;;;;;;2089539;28;20028;-52
2024/03/31 03:24:23;;;;;;;1.30;0.60;;;;;;;;;;2089472;28;20029;-49
2024/03/31 03:25:25;;;;;;;1.05;0.40;;;;;;;;;;2089707;28;20028;-50
2024/03/31 03:26:26;;;;;;;2.30;0.80;;;;;;;;;;2088654;28;20064;-52
2024/03/31 03:27:29;;;;;;;2.17;1.15;;;;;;;;;;2088912;28;20033;-55
2024/03/31 03:28:30;;;;;;;2.85;0.90;;;;;;;;;;2089130;28;20013;-54
2024/03/31 03:29:31;;;;;;;1.67;0.80;;;;;;;;;;2088940;28;20017;-53
2024/03/31 03:30:37;;;;;;;1.83;0.85;;;;;;;;;;2089602;28;20041;-53
2024/03/31 03:31:39;;;;;;;1.20;0.55;;;;;;;;;;2089810;28;20095;-53
2024/03/31 03:32:40;;;;;;;1.33;0.55;;;;;;;;;;2089376;28;20027;-54
2024/03/31 03:33:41;;;;;;;1.75;0.57;;;;;;;;;;2089197;28;20446;-47
2024/03/31 03:34:43;;;;;;;1.15;0.40;;;;;;;;;;2088411;28;20387;-47
2024/03/31 03:35:44;;;;;;;2.08;1.00;;;;;;;;;;2088738;28;20495;-47
2024/03/31 03:36:45;;;;;;;0.98;0.70;;;;;;;;;;2089553;28;20021;-47
2024/03/31 03:37:47;;;;;;;1.33;0.60;;;;;;;;;;2088801;28;20032;-48
2024/03/31 03:38:48;;;;;;;0.88;0.40;;;;;;;;;;2089496;28;20124;-47
2024/03/31 03:39:53;;;;;;;1.20;0.60;;;;;;;;;;2089757;28;20021;-46
2024/03/31 03:40:54;;;;;;;1.10;0.47;;;;;;;;;;2085977;28;20024;-48
2024/03/31 03:41:55;;;;;;;0.40;0.25;;;;;;;;;;2081570;28;20022;-46
2024/03/31 03:42:57;;;;;;;1.90;0.40;;;;;;;;;;2082951;28;20109;-47
2024/03/31 03:43:58;;;;;;;1.05;0.30;;;;;;;;;;2085184;28;20040;-47
2024/03/31 03:44:59;;;;;;;0.35;0.10;;;;;;;;;;2089240;28;20036;-48
2024/03/31 03:46:01;;;;;;;0.40;0.20;;;;;;;;;;2089243;28;20024;-48
2024/03/31 03:47:02;;;;;;;0.98;0.20;;;;;;;;;;2089257;28;20028;-49
2024/03/31 03:48:04;;;;;;;0.95;0.40;;;;;;;;;;2083111;28;20028;-47
2024/03/31 03:49:05;;;;;;;0.30;0.20;;;;;;;;;;2086231;28;20087;-46
2024/03/31 03:50:07;;;;;;;0.80;0.20;;;;;;;;;;2089169;28;20452;-46
2024/03/31 03:51:08;;;;;;;0.70;0.30;;;;;;;;;;2089343;28;20029;-46
2024/03/31 03:52:09;;;;;;;0.43;0.20;;;;;;;;;;2089233;28;20020;-47
2024/03/31 03:53:11;;;;;;;0.20;0.10;;;;;;;;;;2089351;28;20009;-47
2024/03/31 03:54:12;;;;;;;0.20;0.10;;;;;;;;;;2089296;28;20060;-47
2024/03/31 03:55:13;;;;;;;0.30;0.10;;;;;;;;;;2089345;28;20029;-48
2024/03/31 03:56:15;;;;;;;0.43;0.20;;;;;;;;;;2089269;28;20075;-47
2024/03/31 03:57:16;;;;;;;0.85;0.20;;;;;;;;;;2088850;28;20190;-45
2024/03/31 03:58:17;;;;;;;0.47;0.35;;;;;;;;;;2089208;28;20025;-53
2024/03/31 03:59:19;;;;;;;0.88;0.40;;;;;;;;;;2089289;28;20017;-52
2024/03/31 04:00:20;;;;;;;0.63;0.30;;;;;;;;;;2089125;28;20017;-50
2024/03/31 04:01:21;;;;;;;1.80;0.40;;;;;;;;;;2089112;28;20430;-54
2024/03/31 04:02:23;;;;;;;1.95;0.50;;;;;;;;;;2089256;28;20066;-50
2024/03/31 04:03:24;;;;;;;1.02;0.40;;;;;;;;;;2088650;28;20095;-50
2024/03/31 04:04:25;;;;;;;1.00;0.40;;;;;;;;;;2088407;28;20032;-50
2024/03/31 04:05:27;;;;;;;1.13;0.60;;;;;;;;;;2089105;28;20087;-50
2024/03/31 04:06:28;;;;;;;0.63;0.43;;;;;;;;;;2088986;28;20036;-47
2024/03/31 04:07:30;;;;;;;1.15;0.50;;;;;;;;;;2088814;28;20101;-47
2024/03/31 04:08:31;;;;;;;1.85;0.80;;;;;;;;;;2088196;28;20039;-47
2024/03/31 04:09:32;;;;;;;0.73;0.40;;;;;;;;;;2088270;28;20419;-46
2024/03/31 04:10:39;;;;;;;1.40;0.50;;;;;;;;;;2088988;28;20095;-47
2024/03/31 04:11:40;;;;;;;1.23;0.35;;;;;;;;;;2089043;28;20017;-47
2024/03/31 04:12:42;;;;;;;1.52;0.40;;;;;;;;;;2088605;28;20028;-47
2024/03/31 04:13:43;;;;;;;0.43;0.35;;;;;;;;;;2088997;28;20035;-47
2024/03/31 04:14:44;;;;;;;1.48;0.40;;;;;;;;;;2088939;28;20021;-48
2024/03/31 04:15:46;;;;;;;0.60;0.50;;;;;;;;;;2089102;28;20028;-48
2024/03/31 04:16:47;;;;;;;0.80;0.60;;;;;;;;;;2088865;28;20036;-45
2024/03/31 04:17:50;;;;;;;2.47;0.60;;;;;;;;;;2088916;28;20029;-48
2024/03/31 04:18:52;;;;;;;2.35;0.60;;;;;;;;;;2088865;28;20025;-47
2024/03/31 04:19:53;;;;;;;0.60;0.40;;;;;;;;;;2088952;28;20017;-46
2024/03/31 04:20:54;;;;;;;0.70;0.50;;;;;;;;;;2088861;28;20092;-47
2024/03/31 04:21:56;;;;;;;2.28;0.60;;;;;;;;;;2085990;28;20009;-47
2024/03/31 04:22:58;;;;;;;1.63;0.38;;;;;;;;;;2089152;28;20028;-46
2024/03/31 04:24:00;;;;;;;1.55;0.60;;;;;;;;;;2089003;28;20052;-46
2024/03/31 04:25:01;;;;;;;0.80;0.63;;;;;;;;;;2089133;28;20031;-47
2024/03/31 04:26:03;;;;;;;2.30;0.77;;;;;;;;;;2089019;28;20044;-48
2024/03/31 04:27:04;;;;;;;0.80;0.60;;;;;;;;;;2088346;28;20098;-47
2024/03/31 04:28:05;;;;;;;0.93;0.55;;;;;;;;;;2088293;28;20070;-46
2024/03/31 04:29:08;;;;;;;1.02;0.45;;;;;;;;;;2086784;28;20028;-47
2024/03/31 04:30:09;;;;;;;2.47;0.88;;;;;;;;;;2087985;28;20083;-47
2024/03/31 04:31:11;;;;;;;1.15;0.88;;;;;;;;;;2086820;28;20482;-47
2024/03/31 04:32:12;;;;;;;1.88;0.93;;;;;;;;;;2085516;28;20056;-47
2024/03/31 04:33:13;;;;;;;1.50;0.90;;;;;;;;;;2088574;28;20103;-46
2024/03/31 04:34:15;;;;;;;1.13;0.80;;;;;;;;;;2088180;28;20078;-47
2024/03/31 04:35:16;;;;;;;1.23;0.85;;;;;;;;;;2084570;28;20037;-47
2024/03/31 04:36:18;;;;;;;1.30;1.00;;;;;;;;;;2088082;28;20016;-46
2024/03/31 04:37:20;;;;;;;1.45;1.00;;;;;;;;;;2086338;28;20021;-47
2024/03/31 04:38:23;;;;;;;2.30;1.10;;;;;;;;;;2087294;28;20108;-47
2024/03/31 04:39:25;;;;;;;2.65;1.05;;;;;;;;;;2087903;28;20016;-47
2024/03/31 04:40:26;;;;;;;2.10;1.50;;;;;;;;;;2088409;28;20029;-47
2024/03/31 04:41:27;;;;;;;2.10;1.10;;;;;;;;;;2089186;28;20055;-47
2024/03/31 04:42:29;;;;;;;1.27;1.10;;;;;;;;;;2088862;28;20089;-45
2024/03/31 04:43:30;;;;;;;3.38;1.25;;;;;;;;;;2089229;28;20056;-47
2024/03/31 04:44:31;;;;;;;1.80;1.20;;;;;;;;;;2089167;28;20469;-46
2024/03/31 04:45:32;;;;;;;2.05;1.00;;;;;;;;;;2085301;28;20096;-47
2024/03/31 04:46:34;;;;;;;1.55;1.20;;;;;;;;;;2087924;28;20033;-46
2024/03/31 04:47:35;;;;;;;2.10;1.38;;;;;;;;;;2088596;28;20025;-47
2024/03/31 04:48:37;;;;;;;2.17;1.10;;;;;;;;;;2088695;28;20029;-47
2024/03/31 04:49:42;;;;;;;2.58;1.67;;;;;;;;;;2089073;28;20033;-46
2024/03/31 04:50:44;;;;;;;2.63;1.60;;;;;;;;;;2088912;28;20044;-47
2024/03/31 04:51:48;;;;;;;2.45;1.58;;;;;;;;;;2088885;28;20029;-46
2024/03/31 04:52:49;;;;;;;2.15;1.58;;;;;;;;;;2089231;28;20445;-47
2024/03/31 04:53:50;;;;;;;1.90;1.17;;;;;;;;;;2088469;28;20368;-47
2024/03/31 04:54:52;;;;;;;3.42;1.70;;;;;;;;;;2088915;28;20345;-46
2024/03/31 04:55:53;;;;;;;1.63;1.40;;;;;;;;;;2089140;28;20017;-48
2024/03/31 04:56:54;;;;;;;1.70;1.60;;;;;;;;;;2088714;28;20055;-47
2024/03/31 04:57:56;;;;;;;2.63;1.50;;;;;;;;;;2088198;28;20114;-46
2024/03/31 04:58:57;;;;;;;2.20;1.67;;;;;;;;;;2080116;28;20063;-47
2024/03/31 05:00:00;;;;;;;1.98;1.55;;;;;;;;;;2088273;28;20031;-47
2024/03/31 05:01:01;;;;;;;2.35;1.70;;;;;;;;;;2088978;28;20028;-45
2024/03/31 05:02:02;;;;;;;3.28;1.52;;;;;;;;;;2088959;28;20067;-46
2024/03/31 05:03:04;;;;;;;3.53;1.77;;;;;;;;;;2088677;28;20068;-47
2024/03/31 05:04:05;;;;;;;2.60;1.75;;;;;;;;;;2088752;28;20043;-46
2024/03/31 05:05:06;;;;;;;3.22;1.80;;;;;;;;;;2088831;28;20024;-47
2024/03/31 05:06:09;;;;;;;3.42;2.10;;;;;;;;;;2087669;28;20407;-47
2024/03/31 05:07:10;;;;;;;2.20;2.00;;;;;;;;;;2087545;28;20040;-47
2024/03/31 05:08:13;;;;;;;2.67;2.08;;;;;;;;;;2085345;28;20152;-46
2024/03/31 05:09:14;;;;;;;2.25;1.95;;;;;;;;;;2088027;28;20021;-46
2024/03/31 05:10:16;;;;;;;2.47;2.10;;;;;;;;;;2080119;28;20061;-47
2024/03/31 05:11:17;;;;;;;3.10;2.10;;;;;;;;;;2088146;28;20043;-47
2024/03/31 05:12:18;;;;;;;2.70;2.28;;;;;;;;;;2088903;28;20028;-48
2024/03/31 05:13:20;;;;;;;3.45;2.40;;;;;;;;;;2088843;28;20021;-47
2024/03/31 05:14:21;;;;;;;3.20;2.03;;;;;;;;;;2088545;28;20552;-47
2024/03/31 05:15:23;;;;;;;3.22;2.10;;;;;;;;;;2088792;28;20360;-52
2024/03/31 05:16:24;;;;;;;3.45;2.00;;;;;;;;;;2083609;28;20053;-52
2024/03/31 05:17:25;;;;;;;4.05;2.22;;;;;;;;;;2088334;28;20020;-51
2024/03/31 05:18:27;;;;;;;4.40;2.42;;;;;;;;;;2088987;28;20017;-51
2024/03/31 05:19:28;;;;;;;3.72;2.30;;;;;;;;;;2088552;28;20028;-53
2024/03/31 05:20:29;;;;;;;3.08;2.53;;;;;;;;;;2088943;28;20025;-51
2024/03/31 05:21:31;;;;;;;3.47;2.33;;;;;;;;;;2088025;28;20020;-51
2024/03/31 05:22:32;;;;;;;2.60;2.20;;;;;;;;;;2087763;28;20024;-50
2024/03/31 05:23:34;;;;;;;3.40;2.40;;;;;;;;;;2088860;28;20021;-52
2024/03/31 05:24:35;;;;;;;3.40;2.10;;;;;;;;;;2087069;28;20024;-51
2024/03/31 05:25:36;;;;;;;3.53;2.67;;;;;;;;;;2087837;28;20142;-47
2024/03/31 05:26:38;;;;;;;4.82;2.20;;;;;;;;;;2085067;28;20112;-45
2024/03/31 05:27:39;;;;;;;3.90;2.55;;;;;;;;;;2083713;28;20430;-44
2024/03/31 05:28:40;;;;;;;5.53;2.70;;;;;;;;;;2087872;28;20516;-44
2024/03/31 05:29:41;;;;;;;3.88;2.53;;;;;;;;;;2087974;28;20055;-46
2024/03/31 05:30:43;;;;;;;2.75;2.17;;;;;;;;;;2087075;28;20025;-46
2024/03/31 05:31:45;;;;;;;2.47;2.10;;;;;;;;;;2088328;28;20376;-44
2024/03/31 05:32:46;;;;;;;3.65;2.50;;;;;;;;;;2082942;28;20112;-45
2024/03/31 05:33:47;;;;;;;2.65;2.00;;;;;;;;;;2086146;28;20051;-46
2024/03/31 05:34:49;;;;;;;3.33;2.33;;;;;;;;;;2082942;28;20064;-45
2024/03/31 05:35:50;;;;;;;2.58;2.03;;;;;;;;;;2088596;28;20057;-45
2024/03/31 05:36:51;;;;;;;2.00;1.77;;;;;;;;;;2083965;28;20096;-46
2024/03/31 05:37:53;;;;;;;3.85;2.35;;;;;;;;;;2085003;28;20029;-46
2024/03/31 05:38:54;;;;;;;2.85;1.80;;;;;;;;;;2088844;28;20104;-45
2024/03/31 05:39:56;;;;;;;3.80;1.80;;;;;;;;;;2088172;28;20025;-46
2024/03/31 05:40:57;;;;;;;3.05;2.08;;;;;;;;;;2087498;28;20060;-45
2024/03/31 05:41:58;;;;;;;2.42;1.70;;;;;;;;;;2088940;28;20028;-45
2024/03/31 05:42:59;;;;;;;4.97;2.00;;;;;;;;;;2088908;28;20017;-46
2024/03/31 05:44:01;;;;;;;3.10;1.48;;;;;;;;;;2088358;28;20032;-46
2024/03/31 05:45:02;;;;;;;2.25;1.30;;;;;;;;;;2087015;28;20028;-45
2024/03/31 05:46:07;;;;;;;2.70;1.60;;;;;;;;;;2087982;28;20032;-45
2024/03/31 05:47:08;;;;;;;1.95;1.38;;;;;;;;;;2088991;28;20432;-47
2024/03/31 05:48:10;;;;;;;3.17;1.60;;;;;;;;;;2088630;28;20043;-44
2024/03/31 05:49:11;;;;;;;3.35;1.98;;;;;;;;;;2088852;28;20032;-43
2024/03/31 05:50:12;;;;;;;3.40;1.50;;;;;;;;;;2088698;28;20029;-44
2024/03/31 05:51:14;;;;;;;2.00;1.48;;;;;;;;;;2088749;28;20098;-45
2024/03/31 05:52:16;;;;;;;2.00;1.30;;;;;;;;;;2088890;28;20028;-46
2024/03/31 05:53:17;;;;;;;2.95;1.67;;;;;;;;;;2088698;28;20009;-46
2024/03/31 05:54:18;;;;;;;2.20;1.38;;;;;;;;;;2087597;28;20091;-47
2024/03/31 05:55:20;;;;;;;1.90;1.40;;;;;;;;;;2088009;28;20029;-50
2024/03/31 05:56:21;;;;;;;3.17;1.25;;;;;;;;;;2087481;28;20468;-51
2024/03/31 05:57:22;;;;;;;3.35;1.33;;;;;;;;;;2088223;28;20023;-53
2024/03/31 05:58:24;;;;;;;2.25;1.30;;;;;;;;;;2090317;28;20055;-47
2024/03/31 05:59:25;;;;;;;1.60;1.17;;;;;;;;;;2090280;28;20017;-53
2024/03/31 06:00:27;;;;;;;2.60;1.35;;;;;;;;;;2090172;28;20043;-51
2024/03/31 06:01:29;;;;;;;2.08;1.05;;;;;;;;;;2085243;28;20088;-53
2024/03/31 06:02:30;;;;;;;1.58;0.95;;;;;;;;;;2090239;28;20039;-52
2024/03/31 06:03:32;;;;;;;1.88;0.90;;;;;;;;;;2090210;28;20364;-51
2024/03/31 06:04:33;;;;;;;1.48;1.00;;;;;;;;;;2088927;28;20389;-47
2024/03/31 06:05:35;;;;;;;2.45;1.02;;;;;;;;;;2089770;28;20025;-47
2024/03/31 06:06:36;;;;;;;2.45;0.98;;;;;;;;;;2089575;28;20403;-47
2024/03/31 06:07:38;;;;;;;1.65;0.90;;;;;;;;;;2089206;28;20431;-48
2024/03/31 06:08:40;;;;;;;2.35;0.85;;;;;;;;;;2089438;28;20480;-48